createdAt,value
2018-04-07T00:00:14.353Z,4.80
2018-04-07T00:02:41.977Z,6.60
2018-04-07T00:05:09.568Z,6.23
2018-04-07T00:07:37.201Z,4.07
2018-04-07T00:10:05.578Z,7.57
2018-04-07T00:12:33.986Z,3.50
2018-04-07T00:15:01.593Z,4.27
2018-04-07T00:17:29.225Z,8.90
2018-04-07T00:19:56.816Z,3.97
2018-04-07T00:22:24.466Z,9.20
2018-04-07T00:24:52.071Z,3.60
2018-04-07T00:27:20.443Z,4.07
2018-04-07T00:29:48.864Z,5.43
2018-04-07T00:32:16.454Z,5.37
2018-04-07T00:34:45.153Z,7.83
2018-04-07T00:37:12.767Z,5.47
2018-04-07T00:39:40.438Z,6.20
2018-04-07T00:42:08.059Z,4.60
2018-04-07T00:44:36.457Z,3.87
2018-04-07T00:47:04.058Z,5.97
2018-04-07T00:49:31.714Z,5.30
2018-04-07T00:51:59.319Z,5.40
2018-04-07T00:54:26.908Z,9.13
2018-04-07T00:56:54.590Z,7.10
2018-04-07T00:59:22.945Z,8.50
2018-04-07T01:01:50.576Z,5.83
2018-04-07T01:04:18.941Z,5.47
2018-04-07T01:06:47.338Z,5.43
2018-04-07T01:09:14.949Z,7.13
2018-04-07T01:11:42.563Z,4.63
2018-04-07T01:14:10.181Z,6.17
2018-04-07T01:16:37.821Z,6.27
2018-04-07T01:19:06.194Z,5.97
2018-04-07T01:21:34.577Z,8.00
2018-04-07T01:24:02.195Z,4.77
2018-04-07T01:26:29.798Z,4.03
2018-04-07T01:28:57.427Z,4.70
2018-04-07T01:31:25.028Z,6.67
2018-04-07T01:33:52.652Z,5.77
2018-04-07T01:36:20.244Z,8.63
2018-04-07T01:38:47.860Z,8.50
2018-04-07T01:41:16.565Z,4.60
2018-04-07T01:43:45.371Z,4.90
2018-04-07T01:46:12.978Z,7.53
2018-04-07T01:48:41.338Z,6.93
2018-04-07T01:51:08.978Z,6.93
2018-04-07T01:53:36.575Z,4.60
2018-04-07T01:56:04.958Z,5.57
2018-04-07T01:58:32.567Z,7.27
2018-04-07T02:01:00.194Z,7.43
2018-04-07T02:03:27.797Z,8.30
2018-04-07T02:05:55.421Z,5.40
2018-04-07T02:08:23.028Z,4.90
2018-04-07T02:10:50.667Z,4.30
2018-04-07T02:13:18.279Z,8.27
2018-04-07T02:15:46.651Z,4.83
2018-04-07T02:18:15.045Z,5.73
2018-04-07T02:20:42.653Z,7.03
2018-04-07T02:23:10.329Z,10.07
2018-04-07T02:25:37.941Z,8.70
2018-04-07T02:28:05.603Z,6.40
2018-04-07T02:30:33.198Z,10.73
2018-04-07T02:33:00.904Z,7.90
2018-04-07T02:35:28.489Z,6.00
2018-04-07T02:37:56.114Z,4.90
2018-04-07T02:40:24.494Z,14.43
2018-04-07T02:42:52.890Z,6.80
2018-04-07T02:45:20.488Z,6.07
2018-04-07T02:47:48.117Z,8.70
2018-04-07T02:50:16.682Z,8.90
2018-04-07T02:52:46.416Z,9.17
2018-04-07T02:55:14.004Z,6.70
2018-04-07T02:57:41.621Z,7.53
2018-04-07T03:00:09.237Z,8.20
2018-04-07T03:02:36.984Z,7.93
2018-04-07T03:05:04.584Z,7.90
2018-04-07T03:07:32.984Z,11.40
2018-04-07T03:10:00.598Z,8.80
2018-04-07T03:12:28.233Z,11.77
2018-04-07T03:14:55.843Z,6.90
2018-04-07T03:17:24.261Z,9.83
2018-04-07T03:19:51.873Z,10.40
2018-04-07T03:22:19.468Z,8.07
2018-04-07T03:24:47.091Z,10.10
2018-04-07T03:27:15.745Z,9.57
2018-04-07T03:29:43.368Z,7.90
2018-04-07T03:32:10.968Z,9.07
2018-04-07T03:34:38.655Z,8.33
2018-04-07T03:37:06.254Z,7.37
2018-04-07T03:39:33.886Z,8.00
2018-04-07T03:42:02.291Z,7.50
2018-04-07T03:44:29.926Z,11.57
2018-04-07T03:46:58.299Z,10.10
2018-04-07T03:49:26.669Z,6.83
2018-04-07T03:51:54.298Z,9.03
2018-04-07T03:54:21.904Z,16.73
2018-04-07T03:56:50.305Z,7.30
2018-04-07T03:59:17.908Z,10.33
2018-04-07T04:01:46.264Z,10.90
2018-04-07T04:04:14.445Z,8.90
2018-04-07T04:06:42.081Z,11.47
2018-04-07T04:09:09.686Z,8.63
2018-04-07T04:11:37.306Z,6.97
2018-04-07T04:14:04.930Z,7.93
2018-04-07T04:16:33.301Z,6.30
2018-04-07T04:19:00.943Z,9.70
2018-04-07T04:21:28.584Z,9.57
2018-04-07T04:23:56.213Z,7.70
2018-04-07T04:26:23.845Z,11.83
2018-04-07T04:28:52.241Z,9.27
2018-04-07T04:31:20.615Z,8.50
2018-04-07T04:33:49.013Z,18.83
2018-04-07T04:36:16.641Z,6.37
2018-04-07T04:38:45.300Z,12.43
2018-04-07T04:41:12.945Z,8.87
2018-04-07T04:43:40.550Z,8.60
2018-04-07T04:46:08.949Z,13.93
2018-04-07T04:48:36.557Z,9.33
2018-04-07T04:51:04.195Z,9.43
2018-04-07T04:53:31.805Z,10.03
2018-04-07T04:56:00.191Z,7.83
2018-04-07T04:58:28.561Z,7.43
2018-04-07T05:00:56.210Z,12.20
2018-04-07T05:03:23.823Z,10.80
2018-04-07T05:05:51.469Z,10.33
2018-04-07T05:08:19.092Z,10.50
2018-04-07T05:10:46.951Z,10.93
2018-04-07T05:13:15.605Z,12.07
2018-04-07T05:15:43.225Z,12.43
2018-04-07T05:18:11.635Z,13.03
2018-04-07T05:20:39.247Z,12.47
2018-04-07T05:23:06.902Z,11.13
2018-04-07T05:25:34.510Z,13.43
2018-04-07T05:28:02.119Z,9.43
2018-04-07T05:30:29.753Z,10.43
2018-04-07T05:32:57.360Z,10.80
2018-04-07T05:35:25.775Z,12.67
2018-04-07T05:37:53.367Z,16.10
2018-04-07T05:40:21.041Z,12.43
2018-04-07T05:42:48.659Z,15.60
2018-04-07T05:45:16.326Z,13.20
2018-04-07T05:47:44.361Z,12.03
2018-04-07T05:50:12.734Z,10.90
2018-04-07T05:52:41.136Z,12.17
2018-04-07T05:55:08.746Z,14.60
2018-04-07T05:57:36.691Z,13.80
2018-04-07T06:00:04.354Z,11.97
2018-04-07T06:02:32.757Z,17.80
2018-04-07T06:05:00.375Z,14.67
2018-04-07T06:07:28.041Z,15.70
2018-04-07T06:09:55.657Z,10.73
2018-04-07T06:12:24.034Z,14.90
2018-04-07T06:14:52.456Z,13.83
2018-04-07T06:17:20.067Z,9.87
2018-04-07T06:19:47.711Z,12.73
2018-04-07T06:22:16.577Z,10.70
2018-04-07T06:24:45.371Z,14.80
2018-04-07T06:27:13.305Z,9.67
2018-04-07T06:29:41.734Z,13.00
2018-04-07T06:32:09.920Z,15.43
2018-04-07T06:34:39.702Z,16.10
2018-04-07T06:37:08.627Z,11.83
2018-04-07T06:39:41.449Z,10.47
2018-04-07T06:42:10.696Z,10.87
2018-04-07T06:44:38.707Z,10.40
2018-04-07T06:47:06.382Z,8.57
2018-04-07T06:49:34.431Z,10.30
2018-04-07T06:52:02.563Z,16.63
2018-04-07T06:54:30.647Z,13.13
2018-04-07T06:56:59.658Z,8.60
2018-04-07T06:59:27.604Z,9.80
2018-04-07T07:01:56.612Z,10.20
2018-04-07T07:04:24.588Z,7.17
2018-04-07T07:06:52.869Z,16.40
2018-04-07T07:09:20.908Z,10.57
2018-04-07T07:11:49.128Z,13.40
2018-04-07T07:14:17.285Z,12.03
2018-04-07T07:16:46.062Z,11.10
2018-04-07T07:19:15.202Z,8.83
2018-04-07T07:21:44.134Z,7.20
2018-04-07T07:24:12.422Z,10.23
2018-04-07T07:26:40.438Z,10.13
2018-04-07T07:29:09.368Z,14.17
2018-04-07T07:31:37.462Z,8.17
2018-04-07T07:34:06.430Z,10.50
2018-04-07T07:36:34.983Z,12.70
2018-04-07T07:39:03.145Z,8.03
2018-04-07T07:41:31.956Z,6.30
2018-04-07T07:44:00.293Z,10.70
2018-04-07T07:46:28.540Z,9.37
2018-04-07T07:48:56.763Z,10.60
2018-04-07T07:51:25.134Z,11.63
2018-04-07T07:53:53.994Z,12.57
2018-04-07T07:56:22.187Z,9.07
2018-04-07T07:58:51.842Z,7.87
2018-04-07T08:01:21.168Z,9.30
2018-04-07T08:03:50.075Z,7.50
2018-04-07T08:06:18.720Z,12.83
2018-04-07T08:08:46.986Z,8.03
2018-04-07T08:11:16.007Z,7.07
2018-04-07T08:13:45.890Z,9.73
2018-04-07T08:16:14.792Z,8.80
2018-04-07T08:18:43.042Z,8.10
2018-04-07T08:21:11.913Z,7.93
2018-04-07T08:23:39.617Z,10.93
2018-04-07T08:26:07.328Z,8.20
2018-04-07T08:28:35.029Z,8.90
2018-04-07T08:31:02.732Z,10.53
2018-04-07T08:33:31.250Z,8.20
2018-04-07T08:35:58.940Z,8.67
2018-04-07T08:38:26.627Z,8.50
2018-04-07T08:40:55.086Z,8.80
2018-04-07T08:43:22.803Z,6.47
2018-04-07T08:45:50.470Z,7.60
2018-04-07T08:48:18.873Z,7.50
2018-04-07T08:50:46.566Z,11.07
2018-04-07T08:53:15.055Z,7.90
2018-04-07T08:55:42.811Z,6.87
2018-04-07T08:58:11.391Z,8.33
2018-04-07T09:00:39.221Z,11.63
2018-04-07T09:03:07.754Z,8.63
2018-04-07T09:05:36.179Z,13.17
2018-04-07T09:08:03.931Z,8.30
2018-04-07T09:10:31.713Z,7.50
2018-04-07T09:12:59.483Z,8.20
2018-04-07T09:15:27.609Z,10.10
2018-04-07T09:17:55.461Z,7.00
2018-04-07T09:20:24.025Z,6.67
2018-04-07T09:22:52.243Z,7.40
2018-04-07T09:25:21.372Z,7.80
2018-04-07T09:27:50.230Z,8.30
2018-04-07T09:30:17.956Z,7.50
2018-04-07T09:32:47.358Z,8.47
2018-04-07T09:35:15.861Z,12.80
2018-04-07T09:37:43.515Z,7.47
2018-04-07T09:40:11.996Z,6.70
2018-04-07T09:42:39.862Z,6.90
2018-04-07T09:45:08.324Z,8.80
2018-04-07T09:47:36.850Z,9.50
2018-04-07T09:50:04.621Z,8.50
2018-04-07T09:52:32.421Z,6.80
2018-04-07T09:55:00.142Z,7.17
2018-04-07T09:57:27.927Z,6.97
2018-04-07T09:59:55.700Z,6.90
2018-04-07T10:02:23.410Z,8.10
2018-04-07T10:04:51.190Z,9.93
2018-04-07T10:07:19.995Z,10.67
2018-04-07T10:09:49.674Z,9.20
2018-04-07T10:12:17.481Z,7.90
2018-04-07T10:14:46.081Z,6.07
2018-04-07T10:17:14.529Z,7.03
2018-04-07T10:19:42.236Z,6.77
2018-04-07T10:22:10.726Z,7.63
2018-04-07T10:24:39.298Z,9.90
2018-04-07T10:27:07.797Z,7.43
2018-04-07T10:29:35.540Z,7.80
2018-04-07T10:32:03.249Z,13.63
2018-04-07T10:34:31.766Z,6.70
2018-04-07T10:37:00.368Z,8.23
2018-04-07T10:39:28.893Z,7.87
2018-04-07T10:41:56.710Z,11.63
2018-04-07T10:44:24.388Z,7.60
2018-04-07T10:46:52.898Z,621.83
2018-04-07T10:49:20.549Z,1401.37
2018-04-07T10:51:49.102Z,1999.90
2018-04-07T10:54:17.610Z,776.63
2018-04-07T10:56:45.399Z,1216.27
2018-04-07T10:59:13.161Z,16.30
2018-04-07T11:01:41.073Z,40.60
2018-04-07T11:04:08.841Z,14.23
2018-04-07T11:06:36.646Z,7.27
2018-04-07T11:09:04.490Z,5.83
2018-04-07T11:11:33.107Z,6.37
2018-04-07T11:14:00.853Z,11.90
2018-04-07T11:16:28.681Z,5.83
2018-04-07T11:18:57.550Z,4.83
2018-04-07T11:21:25.277Z,5.83
2018-04-07T11:23:52.990Z,6.13
2018-04-07T11:26:20.693Z,6.50
2018-04-07T11:28:48.790Z,5.80
2018-04-07T11:31:16.500Z,5.70
2018-04-07T11:33:44.937Z,6.53
2018-04-07T11:36:12.733Z,6.27
2018-04-07T11:38:40.437Z,6.07
2018-04-07T11:41:08.187Z,6.17
2018-04-07T11:43:35.837Z,6.00
2018-04-07T11:46:04.290Z,5.67
2018-04-07T11:48:32.051Z,6.93
2018-04-07T11:50:59.797Z,5.80
2018-04-07T11:53:27.492Z,5.77
2018-04-07T11:55:55.982Z,6.57
2018-04-07T11:58:24.419Z,8.90
2018-04-07T12:00:52.094Z,6.73
2018-04-07T12:03:21.084Z,8.63
2018-04-07T12:05:48.785Z,6.30
2018-04-07T12:08:16.500Z,7.73
2018-04-07T12:10:44.265Z,8.43
2018-04-07T12:13:11.955Z,8.63
2018-04-07T12:15:40.388Z,6.67
2018-04-07T12:18:08.148Z,5.70
2018-04-07T12:20:36.079Z,6.10
2018-04-07T12:23:03.817Z,5.57
2018-04-07T12:25:31.571Z,10.23
2018-04-07T12:27:59.274Z,6.50
2018-04-07T12:30:27.731Z,5.80
2018-04-07T12:32:55.462Z,7.57
2018-04-07T12:35:23.174Z,5.90
2018-04-07T12:37:51.618Z,6.80
2018-04-07T12:40:19.333Z,9.20
2018-04-07T12:42:47.071Z,7.90
2018-04-07T12:45:15.560Z,6.03
2018-04-07T12:47:44.034Z,12.00
2018-04-07T12:50:12.512Z,8.10
2018-04-07T12:52:40.965Z,5.83
2018-04-07T12:55:08.798Z,6.67
2018-04-07T12:57:36.463Z,6.07
2018-04-07T13:00:04.184Z,8.13
2018-04-07T13:02:33.429Z,7.30
2018-04-07T13:05:02.451Z,9.10
2018-04-07T13:07:31.499Z,6.30
2018-04-07T13:09:59.678Z,24.03
2018-04-07T13:12:27.975Z,318.07
2018-04-07T13:14:56.000Z,7.70
2018-04-07T13:17:24.907Z,8.23
2018-04-07T13:19:53.119Z,9.53
2018-04-07T13:22:22.246Z,10.30
2018-04-07T13:24:51.823Z,46.30
2018-04-07T13:27:20.889Z,12.63
2018-04-07T13:29:49.716Z,16.53
2018-04-07T13:32:17.814Z,10.60
2018-04-07T13:34:46.183Z,7.30
2018-04-07T13:37:14.318Z,9.53
2018-04-07T13:39:43.313Z,7.30
2018-04-07T13:42:12.244Z,10.40
2018-04-07T13:44:41.242Z,8.17
2018-04-07T13:47:09.442Z,6.40
2018-04-07T13:49:37.501Z,6.77
2018-04-07T13:52:05.735Z,6.90
2018-04-07T13:54:34.604Z,5.57
2018-04-07T13:57:02.843Z,6.27
2018-04-07T13:59:30.839Z,6.20
2018-04-07T14:01:59.211Z,6.10
2018-04-07T14:04:27.328Z,8.50
2018-04-07T14:06:55.384Z,6.57
2018-04-07T14:09:24.277Z,8.77
2018-04-07T14:11:53.392Z,6.40
2018-04-07T14:14:21.345Z,5.40
2018-04-07T14:16:50.575Z,5.10
2018-04-07T14:19:20.083Z,4.30
2018-04-07T14:21:48.918Z,8.30
2018-04-07T14:24:19.342Z,5.97
2018-04-07T14:26:50.719Z,4.90
2018-04-07T14:29:20.033Z,5.70
2018-04-07T14:31:48.884Z,7.73
2018-04-07T14:34:16.926Z,8.30
2018-04-07T14:36:44.625Z,6.13
2018-04-07T14:39:12.311Z,6.40
2018-04-07T14:41:40.750Z,6.23
2018-04-07T14:44:09.226Z,4.73
2018-04-07T14:46:36.904Z,5.23
2018-04-07T14:49:04.594Z,6.20
2018-04-07T14:51:33.038Z,9.60
2018-04-07T14:54:00.719Z,7.07
2018-04-07T14:56:28.400Z,9.23
2018-04-07T14:58:56.901Z,9.90
2018-04-07T15:01:24.568Z,5.50
2018-04-07T15:03:52.237Z,5.03
2018-04-07T15:06:21.294Z,5.63
2018-04-07T15:08:50.933Z,8.57
2018-04-07T15:11:19.579Z,6.80
2018-04-07T15:13:48.031Z,20.07
2018-04-07T15:16:16.588Z,5.70
2018-04-07T15:18:44.262Z,8.50
2018-04-07T15:21:11.980Z,7.50
2018-04-07T15:23:40.499Z,10.13
2018-04-07T15:26:08.212Z,7.33
2018-04-07T15:28:35.979Z,10.27
2018-04-07T15:31:04.410Z,6.17
2018-04-07T15:33:32.118Z,5.30
2018-04-07T15:35:59.798Z,4.93
2018-04-07T15:38:28.260Z,5.00
2018-04-07T15:40:55.925Z,7.30
2018-04-07T15:43:24.441Z,6.40
2018-04-07T15:45:52.119Z,4.60
2018-04-07T15:48:21.177Z,4.87
2018-04-07T15:50:50.462Z,4.90
2018-04-07T15:53:19.397Z,5.73
2018-04-07T15:55:47.092Z,5.10
2018-04-07T15:58:14.758Z,11.50
2018-04-07T16:00:42.444Z,9.10
2018-04-07T16:03:10.877Z,6.47
2018-04-07T16:05:38.561Z,6.63
2018-04-07T16:08:06.280Z,6.30
2018-04-07T16:10:33.968Z,3.80
2018-04-07T16:13:01.663Z,5.13
2018-04-07T16:15:30.169Z,5.20
2018-04-07T16:17:57.852Z,4.70
2018-04-07T16:20:25.571Z,5.57
2018-04-07T16:22:54.029Z,5.17
2018-04-07T16:25:23.322Z,7.07
2018-04-07T16:27:51.075Z,4.17
2018-04-07T16:30:19.932Z,4.13
2018-04-07T16:32:47.662Z,4.80
2018-04-07T16:35:15.349Z,4.07
2018-04-07T16:37:43.083Z,3.47
2018-04-07T16:40:10.754Z,4.40
2018-04-07T16:42:39.259Z,4.17
2018-04-07T16:45:06.921Z,4.80
2018-04-07T16:47:34.625Z,3.97
2018-04-07T16:50:02.428Z,3.83
2018-04-07T16:52:30.957Z,3.80
2018-04-07T16:54:59.368Z,4.50
2018-04-07T16:57:27.037Z,5.93
2018-04-07T16:59:54.749Z,3.53
2018-04-07T17:02:22.411Z,4.17
2018-04-07T17:04:51.359Z,4.27
2018-04-07T17:07:20.814Z,6.10
2018-04-07T17:09:48.499Z,5.10
2018-04-07T17:12:16.153Z,8.10
2018-04-07T17:14:43.812Z,5.27
2018-04-07T17:17:11.515Z,6.00
2018-04-07T17:19:39.921Z,8.20
2018-04-07T17:22:07.613Z,5.70
2018-04-07T17:24:35.293Z,4.57
2018-04-07T17:27:02.979Z,5.40
2018-04-07T17:29:31.399Z,9.13
2018-04-07T17:31:59.109Z,13.93
2018-04-07T17:34:27.120Z,9.73
2018-04-07T17:36:55.645Z,4.83
2018-04-07T17:39:23.297Z,5.23
2018-04-07T17:41:51.067Z,1160.17
2018-04-07T17:44:19.767Z,1986.07
2018-04-07T17:46:47.437Z,1999.90
2018-04-07T17:49:15.170Z,1984.13
2018-04-07T17:51:42.841Z,31.20
2018-04-07T17:54:10.552Z,8.07
2018-04-07T17:56:38.221Z,10.17
2018-04-07T17:59:05.955Z,6.00
2018-04-07T18:01:34.396Z,7.87
2018-04-07T18:04:02.089Z,6.23
2018-04-07T18:06:30.529Z,5.47
2018-04-07T18:08:58.259Z,10.13
2018-04-07T18:11:25.971Z,9.10
2018-04-07T18:13:53.631Z,6.30
2018-04-07T18:16:21.313Z,6.27
2018-04-07T18:18:49.886Z,8.37
2018-04-07T18:21:17.642Z,7.50
2018-04-07T18:23:45.330Z,9.10
2018-04-07T18:26:13.067Z,6.30
2018-04-07T18:28:40.747Z,6.40
2018-04-07T18:31:08.456Z,5.70
2018-04-07T18:33:36.134Z,5.87
2018-04-07T18:36:03.833Z,7.03
2018-04-07T18:38:31.497Z,7.60
2018-04-07T18:40:59.207Z,7.27
2018-04-07T18:43:26.873Z,7.50
2018-04-07T18:45:54.547Z,6.63
2018-04-07T18:48:22.239Z,6.37
2018-04-07T18:50:51.196Z,6.93
2018-04-07T18:53:18.890Z,10.10
2018-04-07T18:55:47.326Z,7.30
2018-04-07T18:58:15.028Z,7.30
2018-04-07T19:00:42.689Z,9.50
2018-04-07T19:03:10.398Z,8.17
2018-04-07T19:05:38.092Z,7.40
2018-04-07T19:08:05.784Z,8.40
2018-04-07T19:10:34.221Z,7.03
2018-04-07T19:13:01.952Z,7.30
2018-04-07T19:15:29.600Z,7.20
2018-04-07T19:17:58.073Z,7.00
2018-04-07T19:20:26.536Z,7.67
2018-04-07T19:22:54.238Z,8.10
2018-04-07T19:25:21.931Z,8.20
2018-04-07T19:27:49.618Z,7.10
2018-04-07T19:30:17.308Z,7.10
2018-04-07T19:32:45.784Z,9.60
2018-04-07T19:35:14.265Z,7.20
2018-04-07T19:37:42.876Z,7.83
2018-04-07T19:40:10.591Z,6.97
2018-04-07T19:42:38.266Z,6.97
2018-04-07T19:45:05.954Z,7.27
2018-04-07T19:47:33.605Z,10.00
2018-04-07T19:50:02.067Z,8.33
2018-04-07T19:52:30.522Z,9.47
2018-04-07T19:54:58.213Z,6.73
2018-04-07T19:57:26.659Z,7.23
2018-04-07T19:59:54.361Z,6.63
2018-04-07T20:02:22.798Z,8.57
2018-04-07T20:04:51.898Z,7.83
2018-04-07T20:07:19.608Z,8.00
2018-04-07T20:09:48.068Z,7.07
2018-04-07T20:12:17.233Z,8.43
2018-04-07T20:14:44.919Z,15.93
2018-04-07T20:17:12.612Z,7.63
2018-04-07T20:19:41.054Z,9.03
2018-04-07T20:22:08.733Z,9.83
2018-04-07T20:24:36.399Z,7.57
2018-04-07T20:27:04.933Z,7.47
2018-04-07T20:29:32.618Z,8.33
2018-04-07T20:32:00.360Z,8.40
2018-04-07T20:34:28.044Z,8.73
2018-04-07T20:36:55.756Z,9.20
2018-04-07T20:39:23.457Z,8.63
2018-04-07T20:41:51.128Z,7.77
2018-04-07T20:44:39.680Z,10.63
2018-04-07T20:47:07.370Z,8.17
2018-04-07T20:49:35.826Z,9.37
2018-04-07T20:52:03.512Z,8.53
2018-04-07T20:54:31.962Z,9.00
2018-04-07T20:56:59.642Z,9.47
2018-04-07T20:59:27.328Z,8.13
2018-04-07T21:01:54.989Z,8.97
2018-04-07T21:04:22.656Z,8.80
2018-04-07T21:06:50.670Z,10.60
2018-04-07T21:09:19.147Z,8.10
2018-04-07T21:11:46.824Z,8.80
2018-04-07T21:14:14.483Z,8.80
2018-04-07T21:16:42.165Z,8.63
2018-04-07T21:19:09.836Z,7.97
2018-04-07T21:21:38.312Z,10.60
2018-04-07T21:24:06.768Z,9.23
2018-04-07T21:26:34.460Z,10.90
2018-04-07T21:29:02.906Z,11.70
2018-04-07T21:31:30.630Z,12.93
2018-04-07T21:33:58.312Z,10.97
2018-04-07T21:36:26.025Z,11.87
2018-04-07T21:38:53.703Z,11.47
2018-04-07T21:41:21.410Z,13.10
2018-04-07T21:43:50.501Z,11.73
2018-04-07T21:46:18.882Z,11.37
2018-04-07T21:48:46.552Z,11.03
2018-04-07T21:51:14.231Z,11.80
2018-04-07T21:53:41.907Z,10.87
2018-04-07T21:56:10.360Z,10.53
2018-04-07T21:58:38.038Z,12.80
2018-04-07T22:01:05.720Z,9.73
2018-04-07T22:03:33.413Z,11.03
2018-04-07T22:06:01.147Z,11.83
2018-04-07T22:08:28.851Z,11.80
2018-04-07T22:10:57.364Z,13.90
2018-04-07T22:13:25.032Z,12.50
2018-04-07T22:15:53.578Z,12.77
2018-04-07T22:18:21.268Z,13.13
2018-04-07T22:20:49.843Z,11.87
2018-04-07T22:23:17.529Z,11.70
2018-04-07T22:25:45.996Z,11.47
2018-04-07T22:28:13.725Z,12.83
2018-04-07T22:30:41.398Z,13.47
2018-04-07T22:33:09.113Z,12.60
2018-04-07T22:35:36.790Z,12.17
2018-04-07T22:38:04.506Z,12.03
2018-04-07T22:40:32.949Z,12.63
2018-04-07T22:43:00.668Z,11.40
2018-04-07T22:45:29.151Z,12.70
2018-04-07T22:47:56.812Z,11.40
2018-04-07T22:50:24.550Z,11.50
2018-04-07T22:52:52.271Z,11.43
2018-04-07T22:55:21.310Z,12.07
2018-04-07T22:57:49.859Z,11.93
2018-04-07T23:00:25.142Z,14.50
2018-04-07T23:02:53.561Z,15.50
2018-04-07T23:05:21.263Z,13.67
2018-04-07T23:07:48.985Z,12.27
2018-04-07T23:10:16.695Z,18.03
2018-04-07T23:12:44.388Z,12.50
2018-04-07T23:15:12.092Z,10.60
2018-04-07T23:17:39.766Z,13.10
2018-04-07T23:20:07.471Z,12.07
2018-04-07T23:22:35.130Z,11.90
2018-04-07T23:25:03.704Z,11.07
2018-04-07T23:27:32.125Z,12.43
2018-04-07T23:29:59.851Z,11.23
2018-04-07T23:32:27.527Z,11.63
2018-04-07T23:34:55.285Z,12.63
2018-04-07T23:37:22.966Z,13.03
2018-04-07T23:39:50.676Z,9.90
2018-04-07T23:42:18.999Z,12.10
2018-04-07T23:44:46.695Z,10.90
2018-04-07T23:47:14.375Z,11.30
2018-04-07T23:49:42.067Z,13.73
2018-04-07T23:52:10.486Z,12.13
2018-04-07T23:54:38.184Z,10.77
2018-04-07T23:57:05.977Z,11.47
2018-04-07T23:59:33.697Z,11.17
